createdAt,value
2023-01-15T00:01:38.254Z,95996.78
2023-01-15T00:11:40.791Z,95994.22
2023-01-15T00:21:43.142Z,95979.94
2023-01-15T00:31:53.308Z,95976.31
2023-01-15T00:41:56.371Z,95953.06
2023-01-15T00:51:58.738Z,95962.34
2023-01-15T01:02:01.202Z,95958.03
2023-01-15T01:12:03.816Z,95981.25
2023-01-15T01:22:06.299Z,95957.75
2023-01-15T01:32:08.680Z,95963.59
2023-01-15T01:42:16.164Z,95945.00
2023-01-15T01:52:23.638Z,95924.09
2023-01-15T02:02:26.302Z,95943.94
2023-01-15T02:12:34.386Z,95946.63
2023-01-15T02:22:42.928Z,95939.03
2023-01-15T02:33:14.439Z,95914.44
2023-01-15T02:43:18.259Z,95864.00
2023-01-15T02:53:28.743Z,95882.81
2023-01-15T03:03:46.899Z,95841.03
2023-01-15T03:13:53.018Z,95838.69
2023-01-15T03:23:56.778Z,95860.41
2023-01-15T03:33:59.366Z,95847.09
2023-01-15T03:44:21.552Z,95853.47
2023-01-15T03:54:33.152Z,95842.78
2023-01-15T04:04:36.638Z,95807.69
2023-01-15T04:14:39.237Z,95786.72
2023-01-15T04:24:41.700Z,95752.28
2023-01-15T04:34:44.175Z,95714.00
2023-01-15T04:44:46.532Z,95697.13
2023-01-15T04:54:48.876Z,95688.22
2023-01-15T05:04:51.472Z,95680.31
2023-01-15T05:14:53.971Z,95703.13
2023-01-15T05:24:56.908Z,95697.66
2023-01-15T05:34:59.287Z,95701.47
2023-01-15T05:45:01.635Z,95729.97
2023-01-15T05:55:04.266Z,95726.44
2023-01-15T06:05:07.107Z,95709.25
2023-01-15T06:15:10.471Z,95698.91
2023-01-15T06:25:12.921Z,95715.84
2023-01-15T08:11:29.678Z,95693.69
2023-01-15T08:21:32.668Z,95671.81
2023-01-15T08:31:35.080Z,95633.88
2023-01-15T08:41:37.532Z,95639.66
2023-01-15T08:51:40.229Z,95644.38
2023-01-15T09:01:44.801Z,95628.38
2023-01-15T09:11:47.301Z,95638.63
2023-01-15T09:21:49.764Z,95646.34
2023-01-15T09:31:52.108Z,95653.41
2023-01-15T09:42:25.305Z,95647.03
2023-01-15T09:52:50.808Z,95640.16
2023-01-15T10:03:02.081Z,95646.09
2023-01-15T10:13:19.468Z,95646.78
2023-01-15T10:23:38.457Z,95674.78
2023-01-15T10:34:08.601Z,95650.34
2023-01-15T10:44:25.110Z,95656.75
2023-01-15T10:54:38.645Z,95687.22
2023-01-15T11:04:41.058Z,95693.66
2023-01-15T11:15:03.633Z,95702.47
2023-01-15T11:25:09.237Z,95711.28
2023-01-15T11:35:18.829Z,95730.47
2023-01-15T11:45:42.001Z,95763.50
2023-01-15T11:56:02.813Z,95780.88
2023-01-15T12:06:13.419Z,95796.59
2023-01-15T12:16:15.787Z,95828.66
2023-01-15T12:26:24.108Z,95843.50
2023-01-15T12:36:32.182Z,95854.59
2023-01-15T12:46:38.775Z,95861.97
2023-01-15T12:56:46.842Z,95874.56
2023-01-15T13:06:56.505Z,95902.69
2023-01-15T13:17:05.870Z,95908.25
2023-01-15T13:27:14.288Z,95933.44
2023-01-15T13:37:19.858Z,95929.38
2023-01-15T13:47:26.162Z,95963.38
2023-01-15T13:57:36.176Z,95957.69
2023-01-15T14:07:38.731Z,95959.34
2023-01-15T14:18:13.293Z,95946.00
2023-01-15T14:28:24.814Z,95966.25
2023-01-15T14:38:28.300Z,95975.47
2023-01-15T14:48:30.811Z,95969.31
2023-01-15T14:58:42.201Z,95979.56
2023-01-15T15:08:46.320Z,95982.03
2023-01-15T15:18:58.529Z,95997.13
2023-01-15T15:29:02.259Z,96042.59
2023-01-15T15:39:24.335Z,96040.69
2023-01-15T15:49:26.743Z,96082.44
2023-01-15T15:59:31.877Z,96082.41
2023-01-15T16:09:34.338Z,96081.34
2023-01-15T16:19:39.300Z,96077.88
2023-01-15T16:29:49.900Z,96078.09
2023-01-15T16:39:52.716Z,96095.34
2023-01-15T16:50:23.914Z,96103.94
2023-01-15T17:00:31.061Z,96112.56
2023-01-15T17:10:33.465Z,96114.16
2023-01-15T17:20:37.360Z,96125.75
2023-01-15T17:30:40.005Z,96137.84
2023-01-15T17:40:43.061Z,96161.72
2023-01-15T17:50:45.549Z,96182.28
2023-01-15T18:01:07.489Z,96186.09
2023-01-15T18:11:10.920Z,96183.84
2023-01-15T18:21:13.336Z,96180.13
2023-01-15T18:31:15.785Z,96187.13
2023-01-15T18:41:36.279Z,96197.16
2023-01-15T18:51:38.769Z,96211.69
2023-01-15T19:01:42.356Z,96231.09
2023-01-15T19:11:44.988Z,96261.56
2023-01-15T19:21:47.472Z,96270.38
2023-01-15T19:31:50.860Z,96273.16
2023-01-15T19:42:12.361Z,96273.00
2023-01-15T19:52:33.391Z,96293.13
2023-01-15T20:02:36.988Z,96264.59
2023-01-15T20:12:57.774Z,96245.31
2023-01-15T20:23:00.898Z,96249.00
2023-01-15T20:33:03.450Z,96244.31
2023-01-15T20:43:24.482Z,96243.19
2023-01-15T20:53:33.845Z,96238.66
2023-01-15T21:03:38.544Z,96232.06
2023-01-15T21:13:45.023Z,96237.16
2023-01-15T21:23:47.425Z,96248.16
2023-01-15T21:40:12.099Z,96230.84
2023-01-15T21:50:16.420Z,96219.69
2023-01-15T22:00:20.745Z,96221.16
2023-01-15T22:10:23.957Z,96218.81
2023-01-15T22:20:26.431Z,96193.34
2023-01-15T22:30:28.889Z,96191.19
2023-01-15T22:40:31.431Z,96163.78
2023-01-15T22:50:33.797Z,96161.16
2023-01-15T23:00:36.209Z,96143.03
2023-01-15T23:10:44.545Z,96142.53
2023-01-15T23:20:46.776Z,96128.31
2023-01-15T23:30:49.156Z,96124.84
2023-01-15T23:40:51.940Z,96138.91
2023-01-15T23:50:54.288Z,96127.09
